• Join FlightAware (Why Join?)
  • Login
  • US Flag 
04:57PM EDT


 

Airport Tracker/Info


-or-


 

Live Flight TrackerFlight Track Log ✈ SLI158 ✈ 20-Jun-2013 ✈ MMMX / MEX - MMCL / CUL

Flight Track Log - Related Links

Times and Time Zones

All times are in EDT time to prevent confusion due to time zone crossing. See the SLI158 flight status page for this flight to view local times or setup timezone preferences in your user account.

Time Position Orientation Groundspeed Altitude Reporting Facility
EDT Latitude Longitude Course Direction KTS MPH feet Rate Location/Type
01:38PM 20.9811 -101.3781 306° West  Level Estimated
01:39PM 21.0274 -101.4487 305° West  Level Estimated
01:40PM 21.0737 -101.5193 305° West  Level Estimated
01:41PM 21.1200 -101.5900 305° West  Level Estimated
01:42PM 21.1663 -101.6607 305° West  Level Estimated
01:43PM 21.2125 -101.7315 305° West  Level Estimated
01:44PM 21.2587 -101.8023 305° West  Level Estimated
01:45PM 21.3048 -101.8732 305° West  Level Estimated
01:46PM 21.3510 -101.9441 305° West  Level Estimated
01:47PM 21.3971 -102.0151 305° West  Level Estimated
01:48PM 21.4431 -102.0861 305° West  Level Estimated
01:49PM 21.4892 -102.1571 305° West  Level Estimated
01:50PM 21.5352 -102.2282 305° West  Level Estimated
01:51PM 21.5812 -102.2993 305° West  Level Estimated
01:52PM 21.6271 -102.3705 305° West  Level Estimated
01:53PM 21.6730 -102.4418 305° West  Level Estimated
01:54PM 21.7189 -102.5130 305° West  Level Estimated
01:55PM 21.7648 -102.5844 305° West  Level Estimated
01:56PM 21.8106 -102.6557 305° West  Level Estimated
01:57PM 21.8564 -102.7271 305° West  Level Estimated
01:58PM 21.9021 -102.7986 305° West  Level Estimated
01:59PM 21.9479 -102.8701 305° West  Level Estimated
02:00PM 21.9936 -102.9416 305° West  Level Estimated
02:01PM 22.0392 -103.0132 305° West  Level Estimated
02:02PM 22.0849 -103.0849 305° West  Level Estimated
02:03PM 22.1305 -103.1565 304° West  Level Estimated
02:04PM 22.1761 -103.2283 304° West  Level Estimated
02:05PM 22.2216 -103.3001 304° West  Level Estimated
02:06PM 22.2671 -103.3719 304° West  Level Estimated
02:07PM 22.3126 -103.4438 304° West  Level Estimated
02:08PM 22.3581 -103.5157 304° West  Level Estimated
02:09PM 22.4035 -103.5876 304° West  Level Estimated
02:10PM 22.4489 -103.6597 304° West  Level Estimated
02:11PM 22.4942 -103.7317 304° West  Level Estimated
02:12PM 22.5396 -103.8038 304° West  Level Estimated
02:13PM 22.5849 -103.8760 304° West  Level Estimated
02:14PM 22.6301 -103.9482 304° West  Level Estimated
02:15PM 22.6753 -104.0204 304° West  Level Estimated
02:16PM 22.7205 -104.0927 304° West  Level Estimated
02:17PM 22.7657 -104.1651 304° West  Level Estimated
02:18PM 22.8108 -104.2375 304° West  Level Estimated
02:19PM 22.8559 -104.3099 304° West  Level Estimated
02:20PM 22.9010 -104.3824 304° West  Level Estimated
02:21PM 22.9460 -104.4549 304° West  Level Estimated
02:22PM 22.9910 -104.5275 304° West  Level Estimated
02:23PM 23.0360 -104.6002 304° West  Level Estimated
02:24PM 23.0809 -104.6728 304° West  Level Estimated
02:25PM 23.1258 -104.7456 304° West  Level Estimated
02:26PM 23.1707 -104.8183 304° West  Level Estimated
02:27PM 23.2155 -104.8912 304° West  Level Estimated
02:28PM 23.2603 -104.9641 304° West  Level Estimated
02:29PM 23.3050 -105.0370 304° West  Level Estimated
02:30PM 23.3498 -105.1099 304° West  Level Estimated
02:31PM 23.3945 -105.1830 304° West  Level Estimated
02:32PM 23.4391 -105.2560 304° West  Level Estimated
02:33PM 23.4838 -105.3292 304° West  Level Estimated
02:34PM 23.5284 -105.4023 304° West  Level Estimated
02:35PM 23.5729 -105.4755 304° West  Level Estimated
02:36PM 23.6175 -105.5488 304° West  Level Estimated
02:37PM 23.6619 -105.6221 304° West  Level Estimated
02:38PM 23.7064 -105.6955 304° West  Level Estimated
02:39PM 23.7508 -105.7689 303° West  Level Estimated
02:40PM 23.7952 -105.8424 303° West  Level Estimated
02:41PM 23.8396 -105.9159 303° West  Level Estimated
02:42PM 23.8839 -105.9895 303° West  Level Estimated
02:43PM 23.9282 -106.0631 303° West  Level Estimated
02:44PM 23.9724 -106.1368 303° West  Level Estimated
02:45PM 24.0166 -106.2105 303° West  Level Estimated
02:46PM 24.0608 -106.2843 303° West  Level Estimated
02:47PM 24.1049 -106.3581 303° West  Level Estimated
02:48PM 24.1490 -106.4320 303° West  Level Estimated
02:49PM 24.1931 -106.5059 303° West  Level Estimated
02:50PM 24.2372 -106.5799 303° West  Level Estimated
02:51PM 24.2812 -106.6539 303° West  Level Estimated
02:52PM 24.3251 -106.7280 303° West  Level Estimated
02:53PM 24.3690 -106.8021 303° West  Level Estimated
02:54PM 24.4129 -106.8763 303° West  Level Estimated
02:55PM 24.4568 -106.9505 303° West  Level Estimated
02:56PM 24.5006 -107.0248 303° West  Level Estimated
02:57PM 24.5444 -107.0992 303° West  Level Estimated
02:58PM 24.5881 -107.1736 303° West  Level Estimated
02:59PM 24.6318 -107.2480 303° West  Level Estimated
03:00PM 24.6755 -107.3225 303° West  Level Estimated
03:01PM 24.7192 -107.3970 303° West  Level Estimated
03:02PM 24.7628 -107.4716 303° West  Level Estimated
03:03PM 24.7645 -107.4747 303° West  Level Estimated
03:04PM 24.7645 -107.4747 138° Southeast  Level Estimated
03:05PM 24.7645 -107.4747 138° Southeast  Level Estimated
03:06PM 24.7645 -107.4747 138° Southeast  Level Estimated
03:07PM 24.7645 -107.4747 138° Southeast  Level Estimated